Time;durP1;ratioP1;P1;durP2;ratioP2;P2;SDS_P1;SDS_P2;PMS_P1;PMS_P2;Temp;Humidity;BMP_temperature;BMP_pressure;BME280_temperature;BME280_humidity;BME280_pressure;Samples;Min_cycle;Max_cycle;Signal;HPM_P1;HPM_P2
2022/11/18 00:02:00;;;;;;;27.20;24.83;;;;;;;;;;5036727;28;20210;-56
2022/11/18 00:04:25;;;;;;;29.20;26.50;;;;;;;;;;5034844;28;20175;-56
2022/11/18 00:06:50;;;;;;;25.87;23.37;;;;;;;;;;5030814;28;20266;-54
2022/11/18 00:09:15;;;;;;;28.93;26.53;;;;;;;;;;5036674;28;20261;-55
2022/11/18 00:14:26;;;;;;;25.67;23.37;;;;;;;;;;5040941;28;20548;-55
2022/11/18 00:16:52;;;;;;;27.73;25.40;;;;;;;;;;5036656;28;20661;-55
2022/11/18 00:19:19;;;;;;;29.40;26.87;;;;;;;;;;5037643;28;20705;-56
2022/11/18 00:21:44;;;;;;;26.77;24.53;;;;;;;;;;5043646;28;20646;-56
2022/11/18 00:24:09;;;;;;;28.40;26.20;;;;;;;;;;5036889;28;20642;-55
2022/11/18 00:26:35;;;;;;;25.80;23.60;;;;;;;;;;5041367;28;20189;-56
2022/11/18 00:29:00;;;;;;;24.30;21.97;;;;;;;;;;5033577;28;20183;-55
2022/11/18 00:31:25;;;;;;;29.13;26.73;;;;;;;;;;5030827;28;20216;-56
2022/11/18 00:33:50;;;;;;;28.47;26.07;;;;;;;;;;5037064;28;20212;-57
2022/11/18 00:36:15;;;;;;;28.37;25.97;;;;;;;;;;5040021;28;20188;-56
2022/11/18 00:38:41;;;;;;;28.00;25.50;;;;;;;;;;5041184;28;20262;-55
2022/11/18 00:41:07;;;;;;;29.47;26.90;;;;;;;;;;5039243;28;20675;-55
2022/11/18 00:43:33;;;;;;;27.83;25.57;;;;;;;;;;5039297;28;20204;-55
2022/11/18 00:45:58;;;;;;;28.63;26.33;;;;;;;;;;5041508;28;20661;-57
2022/11/18 00:48:24;;;;;;;28.17;25.77;;;;;;;;;;5033274;28;20177;-56
2022/11/18 00:50:53;;;;;;;27.57;24.97;;;;;;;;;;5044045;28;20180;-56
2022/11/18 00:53:19;;;;;;;27.90;25.73;;;;;;;;;;5036547;28;20216;-56
2022/11/18 00:55:44;;;;;;;27.43;25.03;;;;;;;;;;5034720;28;20612;-57
2022/11/18 00:58:13;;;;;;;27.43;25.13;;;;;;;;;;5035539;28;20631;-57
2022/11/18 01:00:38;;;;;;;28.37;25.77;;;;;;;;;;5038416;28;20203;-57
2022/11/18 01:03:03;;;;;;;27.47;24.97;;;;;;;;;;5034654;28;20655;-55
2022/11/18 01:05:28;;;;;;;29.23;26.53;;;;;;;;;;5039132;28;20185;-55
2022/11/18 01:07:53;;;;;;;28.40;26.00;;;;;;;;;;5026632;28;20254;-60
2022/11/18 01:10:18;;;;;;;30.23;27.70;;;;;;;;;;5029422;28;20753;-56
2022/11/18 01:15:27;;;;;;;25.23;22.73;;;;;;;;;;5035982;28;20731;-56
2022/11/18 01:17:52;;;;;;;28.50;26.20;;;;;;;;;;5032027;28;20614;-58
2022/11/18 01:20:18;;;;;;;28.92;26.38;;;;;;;;;;5036392;28;20183;-56
2022/11/18 01:22:43;;;;;;;27.10;24.40;;;;;;;;;;5048184;28;20202;-56
2022/11/18 01:25:08;;;;;;;29.73;27.27;;;;;;;;;;5035891;28;20534;-56
2022/11/18 01:27:33;;;;;;;25.30;22.77;;;;;;;;;;5038274;28;20179;-56
2022/11/18 01:29:58;;;;;;;29.20;26.80;;;;;;;;;;5045913;28;20171;-56
2022/11/18 01:32:24;;;;;;;28.60;26.07;;;;;;;;;;5036463;28;20187;-57
2022/11/18 01:34:49;;;;;;;28.17;25.60;;;;;;;;;;5031543;28;20234;-56
2022/11/18 01:37:14;;;;;;;25.90;23.27;;;;;;;;;;5033511;28;20550;-56
2022/11/18 01:39:39;;;;;;;28.80;26.17;;;;;;;;;;5037725;28;20179;-59
2022/11/18 01:42:10;;;;;;;28.70;26.20;;;;;;;;;;5035783;28;20183;-57
2022/11/18 01:44:53;;;;;;;28.87;26.47;;;;;;;;;;5037701;28;20632;-56
2022/11/18 01:47:19;;;;;;;26.13;23.93;;;;;;;;;;5041886;28;20653;-56
2022/11/18 01:49:44;;;;;;;26.50;24.20;;;;;;;;;;5034314;28;21021;-56
2022/11/18 01:52:10;;;;;;;28.00;25.70;;;;;;;;;;5035313;28;20198;-56
2022/11/18 01:54:38;;;;;;;27.03;24.73;;;;;;;;;;5037435;28;20263;-57
2022/11/18 01:57:06;;;;;;;28.03;25.60;;;;;;;;;;5041120;28;20616;-57
2022/11/18 01:59:34;;;;;;;28.40;26.10;;;;;;;;;;5043397;28;20650;-56
2022/11/18 02:02:01;;;;;;;26.90;24.67;;;;;;;;;;5035569;28;20621;-56
2022/11/18 02:04:26;;;;;;;26.97;24.70;;;;;;;;;;5041811;28;20624;-56
2022/11/18 02:06:53;;;;;;;27.03;24.70;;;;;;;;;;5036356;28;20596;-57
2022/11/18 02:09:18;;;;;;;26.40;23.80;;;;;;;;;;5042974;28;20192;-56
2022/11/18 02:11:49;;;;;;;28.50;26.00;;;;;;;;;;5038278;28;20615;-56
2022/11/18 02:14:15;;;;;;;25.60;23.13;;;;;;;;;;5037192;28;20193;-56
2022/11/18 02:16:44;;;;;;;30.07;27.47;;;;;;;;;;5040746;28;20606;-56
2022/11/18 02:19:27;;;;;;;25.00;22.73;;;;;;;;;;5036299;28;20619;-56
2022/11/18 02:22:00;;;;;;;23.60;21.20;;;;;;;;;;5040256;28;20610;-56
2022/11/18 02:24:43;;;;;;;28.10;25.80;;;;;;;;;;5035750;28;20602;-56
2022/11/18 02:27:19;;;;;;;26.40;23.70;;;;;;;;;;5031000;28;20610;-56
2022/11/18 02:29:51;;;;;;;22.80;20.60;;;;;;;;;;5040427;28;20621;-56
2022/11/18 02:32:18;;;;;;;27.03;24.67;;;;;;;;;;5039256;28;21541;-57
2022/11/18 02:34:53;;;;;;;30.20;27.40;;;;;;;;;;5040158;28;21059;-55
2022/11/18 02:37:25;;;;;;;26.27;23.70;;;;;;;;;;5041005;28;20625;-56
2022/11/18 02:39:53;;;;;;;25.73;22.77;;;;;;;;;;5038705;28;20626;-56
2022/11/18 02:42:19;;;;;;;24.73;22.33;;;;;;;;;;5036496;28;20698;-57
2022/11/18 02:44:46;;;;;;;25.27;22.77;;;;;;;;;;5037790;28;20617;-56
2022/11/18 02:47:12;;;;;;;27.50;25.07;;;;;;;;;;5035697;28;20204;-56
2022/11/18 02:49:39;;;;;;;25.53;22.93;;;;;;;;;;5035816;28;20954;-56
2022/11/18 02:52:06;;;;;;;28.57;25.97;;;;;;;;;;5031602;28;20646;-57
2022/11/18 02:54:32;;;;;;;27.23;24.40;;;;;;;;;;5034068;28;20658;-57
2022/11/18 02:56:58;;;;;;;26.20;23.40;;;;;;;;;;5045763;28;20610;-57
2022/11/18 02:59:23;;;;;;;28.37;25.87;;;;;;;;;;5039197;28;20693;-57
2022/11/18 03:01:48;;;;;;;28.03;25.23;;;;;;;;;;5031421;28;20180;-58
2022/11/18 03:04:14;;;;;;;28.17;25.33;;;;;;;;;;5034944;28;20633;-57
2022/11/18 03:06:52;;;;;;;30.23;27.23;;;;;;;;;;5044248;28;20599;-57
2022/11/18 03:09:21;;;;;;;26.50;23.70;;;;;;;;;;5044268;28;21196;-56
2022/11/18 03:12:04;;;;;;;28.50;24.27;;;;;;;;;;5047709;28;20600;-56
2022/11/18 03:14:44;;;;;;;28.90;25.80;;;;;;;;;;5048291;28;20662;-58
2022/11/18 03:17:24;;;;;;;28.33;25.43;;;;;;;;;;5035939;28;20627;-57
2022/11/18 03:20:08;;;;;;;30.53;27.63;;;;;;;;;;5036588;28;20615;-57
2022/11/18 03:22:37;;;;;;;27.67;24.90;;;;;;;;;;5034781;28;20821;-56
2022/11/18 03:25:04;;;;;;;34.30;31.07;;;;;;;;;;5033903;28;20598;-58
2022/11/18 03:27:33;;;;;;;28.87;25.77;;;;;;;;;;5034696;28;20685;-56
2022/11/18 03:30:02;;;;;;;31.50;25.60;;;;;;;;;;5035139;28;20597;-56
2022/11/18 03:32:30;;;;;;;35.57;32.30;;;;;;;;;;5033208;28;20598;-56
2022/11/18 03:35:01;;;;;;;37.13;33.80;;;;;;;;;;5047752;28;20610;-56
2022/11/18 03:37:27;;;;;;;33.60;30.60;;;;;;;;;;5031199;28;20593;-57
2022/11/18 03:39:53;;;;;;;32.17;29.00;;;;;;;;;;5043250;28;20621;-56
2022/11/18 03:42:23;;;;;;;30.93;27.93;;;;;;;;;;5031725;28;20200;-57
2022/11/18 03:44:54;;;;;;;30.03;27.30;;;;;;;;;;5034398;28;20648;-57
2022/11/18 03:47:32;;;;;;;30.80;28.10;;;;;;;;;;5040120;28;20605;-57
2022/11/18 03:50:00;;;;;;;26.17;23.57;;;;;;;;;;5042754;28;20618;-57
2022/11/18 03:52:28;;;;;;;26.77;24.43;;;;;;;;;;5036458;28;20612;-56
2022/11/18 03:54:55;;;;;;;33.20;30.30;;;;;;;;;;5035600;28;20664;-57
2022/11/18 03:57:23;;;;;;;29.33;26.37;;;;;;;;;;5031171;28;21137;-57
2022/11/18 04:00:09;;;;;;;32.70;29.60;;;;;;;;;;5042960;28;20611;-58
2022/11/18 04:02:34;;;;;;;29.93;26.73;;;;;;;;;;5045281;28;20761;-59
2022/11/18 04:05:00;;;;;;;30.07;27.37;;;;;;;;;;5048826;28;20603;-57
2022/11/18 04:07:25;;;;;;;28.10;25.57;;;;;;;;;;5041320;28;20211;-57
2022/11/18 04:09:54;;;;;;;26.03;23.33;;;;;;;;;;5031748;28;20590;-58
2022/11/18 04:12:20;;;;;;;28.10;25.40;;;;;;;;;;5043013;28;20204;-56
2022/11/18 04:14:48;;;;;;;28.53;25.90;;;;;;;;;;5049390;28;21324;-57
2022/11/18 04:17:19;;;;;;;24.73;22.20;;;;;;;;;;5037474;28;20274;-57
2022/11/18 04:19:44;;;;;;;26.70;23.90;;;;;;;;;;5038421;28;21035;-58
2022/11/18 04:22:10;;;;;;;27.60;25.00;;;;;;;;;;5036811;28;20658;-58
2022/11/18 04:24:35;;;;;;;27.27;24.57;;;;;;;;;;5037461;28;20192;-58
2022/11/18 04:27:01;;;;;;;29.10;26.50;;;;;;;;;;5029209;28;20643;-57
2022/11/18 04:29:26;;;;;;;26.07;23.57;;;;;;;;;;5040895;28;20237;-58
2022/11/18 04:31:52;;;;;;;24.87;22.37;;;;;;;;;;5037585;28;20183;-58
2022/11/18 04:34:17;;;;;;;27.43;24.93;;;;;;;;;;5047599;28;20201;-57
2022/11/18 04:36:42;;;;;;;29.37;26.47;;;;;;;;;;5039176;28;20178;-57
2022/11/18 04:39:07;;;;;;;29.40;26.83;;;;;;;;;;5040290;28;20265;-58
2022/11/18 04:44:16;;;;;;;29.43;26.23;;;;;;;;;;5035243;28;20312;-58
2022/11/18 04:46:42;;;;;;;32.23;29.43;;;;;;;;;;5040798;28;20690;-58
2022/11/18 04:49:08;;;;;;;29.27;26.37;;;;;;;;;;5045472;28;20246;-58
2022/11/18 04:51:33;;;;;;;32.83;29.93;;;;;;;;;;5037259;28;20183;-59
2022/11/18 04:53:58;;;;;;;29.50;26.40;;;;;;;;;;5040292;28;20691;-57
2022/11/18 04:56:23;;;;;;;28.67;25.67;;;;;;;;;;5031076;28;20183;-57
2022/11/18 04:58:48;;;;;;;29.27;26.17;;;;;;;;;;5036907;28;20182;-57
2022/11/18 05:01:14;;;;;;;33.23;30.33;;;;;;;;;;5037788;28;20184;-57
2022/11/18 05:03:39;;;;;;;32.23;28.93;;;;;;;;;;5033875;28;20288;-57
2022/11/18 05:06:04;;;;;;;34.63;30.93;;;;;;;;;;5034376;28;20196;-57
2022/11/18 05:08:30;;;;;;;34.37;30.67;;;;;;;;;;5037487;28;20233;-57
2022/11/18 05:12:47;;;;;;;33.63;29.83;;;;;;;;;;5034159;28;20635;-59
2022/11/18 05:13:40;;;;;;;35.53;32.03;;;;;;;;;;5033675;28;20279;-58
2022/11/18 05:16:05;;;;;;;35.60;31.90;;;;;;;;;;5035843;28;20795;-58
2022/11/18 05:18:31;;;;;;;36.83;32.83;;;;;;;;;;5045481;28;20657;-59
2022/11/18 05:20:56;;;;;;;34.77;31.17;;;;;;;;;;5032432;28;20202;-59
2022/11/18 05:23:21;;;;;;;35.00;31.20;;;;;;;;;;5049063;28;20207;-57
2022/11/18 05:25:46;;;;;;;40.10;33.70;;;;;;;;;;5037662;28;20239;-58
2022/11/18 05:28:11;;;;;;;33.53;29.93;;;;;;;;;;5039691;28;20183;-58
2022/11/18 05:30:36;;;;;;;35.90;31.53;;;;;;;;;;5035287;28;20587;-58
2022/11/18 05:33:01;;;;;;;34.05;30.52;;;;;;;;;;5040308;28;20184;-58
2022/11/18 05:35:27;;;;;;;35.40;31.60;;;;;;;;;;5030085;28;20217;-57
2022/11/18 05:37:52;;;;;;;36.10;31.33;;;;;;;;;;5034416;28;20178;-57
2022/11/18 05:40:17;;;;;;;36.28;32.55;;;;;;;;;;5035978;28;20187;-57
2022/11/18 05:45:26;;;;;;;34.50;30.87;;;;;;;;;;5030110;28;20236;-57
2022/11/18 05:48:01;;;;;;;34.27;30.60;;;;;;;;;;5030357;28;20622;-57
2022/11/18 05:50:27;;;;;;;33.90;29.23;;;;;;;;;;5032011;28;20180;-57
2022/11/18 05:52:52;;;;;;;31.43;28.23;;;;;;;;;;5039513;28;20621;-57
2022/11/18 05:55:18;;;;;;;32.87;29.40;;;;;;;;;;5048203;28;20217;-57
2022/11/18 05:57:43;;;;;;;33.40;28.33;;;;;;;;;;5031526;28;20242;-57
2022/11/18 06:00:09;;;;;;;32.83;29.27;;;;;;;;;;5030888;28;20652;-58
2022/11/18 06:02:34;;;;;;;34.20;30.40;;;;;;;;;;5031346;28;20307;-58
2022/11/18 06:05:01;;;;;;;30.93;27.73;;;;;;;;;;5031212;28;20264;-57
2022/11/18 06:07:41;;;;;;;33.00;29.50;;;;;;;;;;5038058;28;20475;-58
2022/11/18 06:10:06;;;;;;;33.13;28.93;;;;;;;;;;5043168;28;20671;-57
2022/11/18 06:12:37;;;;;;;31.43;28.33;;;;;;;;;;5057947;28;20739;-57
2022/11/18 06:15:14;;;;;;;34.40;29.87;;;;;;;;;;5034467;28;20217;-59
2022/11/18 06:17:45;;;;;;;31.53;27.23;;;;;;;;;;5039040;28;20649;-56
2022/11/18 06:20:11;;;;;;;35.63;30.77;;;;;;;;;;5032039;28;21239;-57
2022/11/18 06:22:36;;;;;;;33.10;29.37;;;;;;;;;;5036594;28;20641;-58
2022/11/18 06:25:02;;;;;;;33.70;29.90;;;;;;;;;;5029991;28;20190;-56
2022/11/18 06:27:27;;;;;;;34.17;30.17;;;;;;;;;;5032236;28;20177;-57
2022/11/18 06:29:53;;;;;;;31.13;27.77;;;;;;;;;;5031510;28;20176;-56
2022/11/18 06:32:18;;;;;;;34.60;30.43;;;;;;;;;;5035629;28;20177;-56
2022/11/18 06:34:43;;;;;;;31.47;27.97;;;;;;;;;;5032275;28;20179;-56
2022/11/18 06:37:15;;;;;;;31.70;28.27;;;;;;;;;;5041318;28;20240;-57
2022/11/18 06:39:40;;;;;;;31.70;28.53;;;;;;;;;;5046012;28;20260;-57
2022/11/18 06:42:05;;;;;;;29.53;26.33;;;;;;;;;;5037139;28;20755;-57
2022/11/18 06:44:30;;;;;;;29.50;26.27;;;;;;;;;;5031119;28;20266;-56
2022/11/18 06:46:56;;;;;;;31.93;28.07;;;;;;;;;;5038754;28;20209;-57
2022/11/18 06:49:21;;;;;;;29.70;25.43;;;;;;;;;;5043783;28;20177;-57
2022/11/18 06:51:46;;;;;;;30.07;27.00;;;;;;;;;;5042266;28;20179;-56
2022/11/18 06:54:12;;;;;;;30.40;27.20;;;;;;;;;;5029805;28;20231;-56
2022/11/18 06:56:37;;;;;;;27.33;24.43;;;;;;;;;;5029059;28;20192;-56
2022/11/18 06:59:02;;;;;;;31.60;25.30;;;;;;;;;;5045748;28;20184;-56
2022/11/18 07:01:29;;;;;;;28.30;25.33;;;;;;;;;;5028332;28;20197;-56
2022/11/18 07:03:54;;;;;;;29.20;26.20;;;;;;;;;;5029112;28;20222;-56
2022/11/18 07:06:21;;;;;;;30.00;26.23;;;;;;;;;;5039999;28;20598;-59
2022/11/18 07:08:46;;;;;;;25.90;22.53;;;;;;;;;;5044302;28;20178;-59
2022/11/18 07:11:13;;;;;;;27.87;24.90;;;;;;;;;;5033245;28;20659;-59
2022/11/18 07:13:38;;;;;;;26.60;23.80;;;;;;;;;;5035105;28;20201;-59
2022/11/18 07:16:11;;;;;;;27.00;24.10;;;;;;;;;;5034918;28;20626;-59
2022/11/18 07:18:37;;;;;;;25.67;22.30;;;;;;;;;;5032611;28;20178;-60
2022/11/18 07:21:03;;;;;;;25.70;22.30;;;;;;;;;;5031730;28;20698;-60
2022/11/18 07:23:29;;;;;;;24.43;21.97;;;;;;;;;;5031226;28;20633;-60
2022/11/18 07:25:54;;;;;;;23.23;20.73;;;;;;;;;;5042848;28;20739;-61
2022/11/18 07:28:20;;;;;;;23.70;21.20;;;;;;;;;;5049351;28;20584;-60
2022/11/18 07:30:45;;;;;;;25.00;22.27;;;;;;;;;;5047555;28;20174;-60
2022/11/18 07:33:10;;;;;;;24.05;21.55;;;;;;;;;;5050003;28;20178;-59
2022/11/18 07:35:35;;;;;;;25.27;22.67;;;;;;;;;;5038857;28;20177;-59
2022/11/18 07:38:00;;;;;;;25.33;21.80;;;;;;;;;;5031909;28;20183;-57
2022/11/18 07:40:25;;;;;;;24.50;22.00;;;;;;;;;;5050835;28;20181;-57
2022/11/18 07:42:51;;;;;;;25.50;22.83;;;;;;;;;;5050249;28;20539;-58
2022/11/18 07:45:16;;;;;;;27.37;22.40;;;;;;;;;;5036403;28;20182;-58
2022/11/18 07:47:41;;;;;;;24.90;22.20;;;;;;;;;;5030104;28;20675;-58
2022/11/18 07:50:06;;;;;;;25.73;23.03;;;;;;;;;;5030827;28;20255;-59
2022/11/18 07:52:31;;;;;;;24.77;21.10;;;;;;;;;;5030876;28;20310;-58
2022/11/18 07:54:57;;;;;;;25.02;22.38;;;;;;;;;;5030653;28;20226;-58
2022/11/18 07:57:22;;;;;;;27.37;22.70;;;;;;;;;;5030663;28;20228;-58
2022/11/18 07:59:47;;;;;;;23.92;21.17;;;;;;;;;;5030581;28;20739;-57
2022/11/18 08:02:12;;;;;;;25.20;22.50;;;;;;;;;;5030537;28;20198;-58
2022/11/18 08:04:37;;;;;;;23.63;21.17;;;;;;;;;;5030366;28;20226;-58
2022/11/18 08:07:02;;;;;;;24.50;21.90;;;;;;;;;;5030367;28;20174;-59
2022/11/18 08:09:28;;;;;;;22.70;20.47;;;;;;;;;;5029523;28;20183;-58
2022/11/18 08:11:53;;;;;;;22.40;20.10;;;;;;;;;;5030531;28;20268;-58
2022/11/18 08:14:18;;;;;;;21.50;19.30;;;;;;;;;;5040698;28;20183;-58
2022/11/18 08:16:43;;;;;;;22.30;19.80;;;;;;;;;;5049889;28;20172;-58
2022/11/18 08:19:08;;;;;;;20.30;18.23;;;;;;;;;;5050450;28;20193;-58
2022/11/18 08:21:34;;;;;;;24.10;19.90;;;;;;;;;;5050261;28;20517;-58
2022/11/18 08:23:59;;;;;;;20.43;18.33;;;;;;;;;;5048050;28;20201;-57
2022/11/18 08:26:24;;;;;;;20.67;18.47;;;;;;;;;;5050153;28;20227;-58
2022/11/18 08:28:50;;;;;;;20.77;18.63;;;;;;;;;;5047933;28;20692;-57
2022/11/18 08:31:17;;;;;;;21.63;19.33;;;;;;;;;;5048843;28;20181;-57
2022/11/18 08:33:43;;;;;;;21.37;19.07;;;;;;;;;;5050448;28;20703;-58
2022/11/18 08:36:09;;;;;;;22.73;20.33;;;;;;;;;;5048731;28;20632;-57
2022/11/18 08:38:34;;;;;;;22.73;20.40;;;;;;;;;;5050429;28;20662;-57
2022/11/18 08:40:59;;;;;;;23.33;20.93;;;;;;;;;;5050553;28;20574;-58
2022/11/18 08:43:25;;;;;;;22.33;20.07;;;;;;;;;;5050383;28;20672;-57
2022/11/18 08:45:50;;;;;;;27.50;22.90;;;;;;;;;;5048654;28;20170;-57
2022/11/18 08:48:15;;;;;;;26.13;23.30;;;;;;;;;;5050472;28;20164;-59
2022/11/18 08:50:40;;;;;;;23.90;21.20;;;;;;;;;;5050290;28;20184;-58
2022/11/18 08:53:05;;;;;;;25.50;22.77;;;;;;;;;;5050401;28;20238;-58
2022/11/18 08:55:30;;;;;;;23.42;21.05;;;;;;;;;;5048673;28;20171;-57
2022/11/18 08:57:56;;;;;;;25.73;22.80;;;;;;;;;;5042274;28;20182;-58
2022/11/18 09:00:21;;;;;;;27.63;22.30;;;;;;;;;;5031291;28;20194;-58
2022/11/18 09:02:46;;;;;;;23.70;21.30;;;;;;;;;;5034498;28;20514;-58
2022/11/18 09:05:11;;;;;;;27.33;24.63;;;;;;;;;;5034432;28;20265;-56
2022/11/18 09:07:36;;;;;;;31.53;26.77;;;;;;;;;;5046482;28;20182;-55
2022/11/18 09:10:02;;;;;;;30.35;27.08;;;;;;;;;;5054560;28;20165;-56
2022/11/18 09:12:27;;;;;;;32.17;26.57;;;;;;;;;;5054230;28;20255;-57
2022/11/18 09:14:52;;;;;;;31.33;27.30;;;;;;;;;;5054231;28;20174;-57
2022/11/18 09:17:17;;;;;;;35.53;29.07;;;;;;;;;;5045239;28;20181;-57
2022/11/18 09:19:42;;;;;;;29.70;26.50;;;;;;;;;;5031770;28;20261;-55
2022/11/18 09:22:08;;;;;;;34.83;26.83;;;;;;;;;;5034258;28;20204;-56
2022/11/18 09:24:33;;;;;;;30.50;27.23;;;;;;;;;;5034218;28;20226;-56
2022/11/18 09:27:01;;;;;;;32.10;26.90;;;;;;;;;;5042022;28;20172;-55
2022/11/18 09:29:27;;;;;;;33.20;27.80;;;;;;;;;;5054116;28;20256;-55
2022/11/18 09:31:52;;;;;;;31.43;27.70;;;;;;;;;;5053818;28;20707;-56
2022/11/18 09:34:18;;;;;;;34.10;28.10;;;;;;;;;;5053896;28;20657;-56
2022/11/18 09:36:43;;;;;;;28.53;25.53;;;;;;;;;;5053563;28;20181;-56
2022/11/18 09:39:08;;;;;;;32.00;26.40;;;;;;;;;;5053842;28;20655;-56
2022/11/18 09:41:44;;;;;;;32.40;27.83;;;;;;;;;;5053857;28;20175;-56
2022/11/18 09:44:15;;;;;;;29.83;25.60;;;;;;;;;;5053685;28;20207;-56
2022/11/18 09:46:58;;;;;;;29.60;26.30;;;;;;;;;;5053669;28;20621;-56
2022/11/18 09:49:36;;;;;;;37.57;29.37;;;;;;;;;;5053812;28;21115;-56
2022/11/18 09:52:09;;;;;;;32.10;27.67;;;;;;;;;;5053301;28;20590;-55
2022/11/18 09:54:35;;;;;;;39.67;28.50;;;;;;;;;;5052556;28;21140;-57
2022/11/18 09:57:00;;;;;;;36.20;29.73;;;;;;;;;;5052132;28;20674;-57
2022/11/18 09:59:27;;;;;;;39.20;30.77;;;;;;;;;;5052223;28;20683;-56
2022/11/18 10:01:54;;;;;;;34.97;31.13;;;;;;;;;;5052097;28;20179;-58
2022/11/18 10:04:20;;;;;;;39.00;31.47;;;;;;;;;;5052006;28;20632;-57
2022/11/18 10:06:46;;;;;;;42.10;31.63;;;;;;;;;;5051697;28;20562;-57
2022/11/18 10:09:18;;;;;;;43.57;34.20;;;;;;;;;;5051886;28;20584;-56
2022/11/18 10:11:48;;;;;;;38.63;31.67;;;;;;;;;;5051499;28;20615;-56
2022/11/18 10:14:18;;;;;;;37.63;31.33;;;;;;;;;;5051953;28;21101;-57
2022/11/18 10:17:02;;;;;;;39.23;30.83;;;;;;;;;;5051682;28;20604;-56
2022/11/18 10:19:46;;;;;;;41.07;31.87;;;;;;;;;;5051782;28;21214;-55
2022/11/18 10:22:14;;;;;;;33.73;27.30;;;;;;;;;;5051615;28;20597;-57
2022/11/18 10:24:44;;;;;;;33.47;26.50;;;;;;;;;;5051805;28;20644;-57
2022/11/18 10:27:11;;;;;;;34.60;28.23;;;;;;;;;;5051818;28;20997;-56
2022/11/18 10:29:36;;;;;;;34.87;27.20;;;;;;;;;;5051724;28;20581;-57
2022/11/18 10:32:03;;;;;;;27.57;22.83;;;;;;;;;;5051595;28;21165;-56
2022/11/18 10:34:29;;;;;;;34.60;25.90;;;;;;;;;;5051746;28;20238;-57
2022/11/18 10:36:59;;;;;;;30.80;25.13;;;;;;;;;;5051486;28;21110;-57
2022/11/18 10:39:24;;;;;;;30.20;24.87;;;;;;;;;;5051510;28;20643;-57
2022/11/18 10:42:00;;;;;;;25.97;22.40;;;;;;;;;;5051612;28;20583;-57
2022/11/18 10:44:29;;;;;;;27.10;22.63;;;;;;;;;;5051455;28;20211;-57
2022/11/18 10:46:55;;;;;;;26.97;23.20;;;;;;;;;;5051235;28;20603;-56
2022/11/18 10:49:21;;;;;;;26.33;21.30;;;;;;;;;;5051251;28;20607;-57
2022/11/18 10:51:47;;;;;;;26.13;23.30;;;;;;;;;;5051530;28;20179;-57
2022/11/18 10:54:14;;;;;;;21.50;18.10;;;;;;;;;;5011867;28;1145638;-57
2022/11/18 10:56:44;;;;;;;20.13;17.17;;;;;;;;;;5052383;28;20629;-57
2022/11/18 10:59:15;;;;;;;22.07;18.37;;;;;;;;;;5050719;28;20701;-57
2022/11/18 11:01:40;;;;;;;23.00;19.73;;;;;;;;;;5052238;28;20599;-56
2022/11/18 11:04:16;;;;;;;19.80;17.70;;;;;;;;;;5052200;28;20695;-57
2022/11/18 11:06:41;;;;;;;23.50;19.10;;;;;;;;;;5052216;28;20172;-57
2022/11/18 11:09:07;;;;;;;22.87;18.17;;;;;;;;;;5051866;28;20703;-57
2022/11/18 11:11:34;;;;;;;23.87;19.70;;;;;;;;;;5051948;28;20168;-57
2022/11/18 11:14:04;;;;;;;26.20;20.13;;;;;;;;;;5050728;28;20432;-57
2022/11/18 11:16:30;;;;;;;21.00;18.57;;;;;;;;;;5052073;28;20599;-56
2022/11/18 11:18:57;;;;;;;23.27;18.37;;;;;;;;;;5051626;28;20574;-56
2022/11/18 11:21:26;;;;;;;25.70;21.53;;;;;;;;;;5051956;28;20648;-56
2022/11/18 11:23:51;;;;;;;29.57;22.67;;;;;;;;;;5050749;28;21003;-56
2022/11/18 11:26:24;;;;;;;27.90;22.87;;;;;;;;;;5051809;28;20579;-57
2022/11/18 11:29:04;;;;;;;27.60;24.33;;;;;;;;;;5051350;28;20172;-56
2022/11/18 11:31:37;;;;;;;27.53;24.53;;;;;;;;;;5051807;28;20588;-56
2022/11/18 11:34:10;;;;;;;26.03;20.03;;;;;;;;;;5051433;28;20594;-56
2022/11/18 11:36:47;;;;;;;26.33;21.47;;;;;;;;;;5051381;28;21135;-57
2022/11/18 11:39:31;;;;;;;26.47;23.17;;;;;;;;;;5051607;28;20748;-56
2022/11/18 11:42:02;;;;;;;26.20;21.63;;;;;;;;;;5051656;28;20597;-57
2022/11/18 11:44:49;;;;;;;26.00;22.20;;;;;;;;;;5051281;28;20634;-57
2022/11/18 11:47:46;;;;;;;25.73;21.07;;;;;;;;;;5051407;28;20578;-57
2022/11/18 11:50:11;;;;;;;28.57;24.47;;;;;;;;;;5051428;28;20682;-56
2022/11/18 11:52:40;;;;;;;32.63;25.20;;;;;;;;;;5051444;28;20666;-57
2022/11/18 11:55:17;;;;;;;31.63;25.13;;;;;;;;;;5051097;28;20274;-56
2022/11/18 11:57:42;;;;;;;32.17;26.90;;;;;;;;;;5050971;28;20643;-56
2022/11/18 12:00:12;;;;;;;35.72;29.58;;;;;;;;;;5051032;28;20570;-56
2022/11/18 12:02:52;;;;;;;37.33;29.73;;;;;;;;;;5051101;28;20207;-57
2022/11/18 12:05:33;;;;;;;38.90;30.00;;;;;;;;;;5051275;28;20578;-57
2022/11/18 12:08:21;;;;;;;38.23;29.77;;;;;;;;;;5050622;28;20664;-57
2022/11/18 12:11:02;;;;;;;36.43;29.83;;;;;;;;;;5047980;28;21185;-56
2022/11/18 12:13:36;;;;;;;36.90;30.30;;;;;;;;;;5050869;28;21074;-58
2022/11/18 12:16:20;;;;;;;40.53;34.60;;;;;;;;;;5050634;28;20717;-56
2022/11/18 12:18:52;;;;;;;41.13;32.97;;;;;;;;;;5050532;28;20632;-56
2022/11/18 12:21:50;;;;;;;41.87;33.17;;;;;;;;;;5050916;28;21193;-57
2022/11/18 12:24:16;;;;;;;45.53;35.13;;;;;;;;;;5050665;28;20639;-58
2022/11/18 12:26:41;;;;;;;40.30;32.03;;;;;;;;;;5050791;28;20590;-58
2022/11/18 12:29:18;;;;;;;41.57;34.63;;;;;;;;;;5050516;28;20177;-56
2022/11/18 12:31:56;;;;;;;38.07;31.50;;;;;;;;;;5050806;28;20191;-56
2022/11/18 12:34:24;;;;;;;41.53;32.70;;;;;;;;;;5050445;28;20580;-55
2022/11/18 12:36:49;;;;;;;37.10;31.43;;;;;;;;;;5050585;28;20601;-56
2022/11/18 12:39:23;;;;;;;39.13;31.77;;;;;;;;;;5050254;28;21511;-57
2022/11/18 12:44:43;;;;;;;40.00;33.63;;;;;;;;;;5050915;28;20609;-57
2022/11/18 12:47:09;;;;;;;38.07;31.30;;;;;;;;;;5050461;28;20578;-57
2022/11/18 12:49:34;;;;;;;43.73;33.20;;;;;;;;;;5050114;28;20675;-57
2022/11/18 12:52:00;;;;;;;37.55;32.85;;;;;;;;;;5050436;28;20184;-57
2022/11/18 12:54:28;;;;;;;39.63;32.10;;;;;;;;;;5050052;28;20684;-57
2022/11/18 12:56:54;;;;;;;38.93;31.77;;;;;;;;;;5050495;28;20583;-57
2022/11/18 12:59:29;;;;;;;40.57;33.10;;;;;;;;;;5034063;28;20616;-57
2022/11/18 13:02:26;;;;;;;41.20;34.40;;;;;;;;;;5030441;28;20572;-57
2022/11/18 13:05:01;;;;;;;44.53;34.90;;;;;;;;;;5007460;28;20702;-56
2022/11/18 13:10:21;;;;;;;49.17;36.17;;;;;;;;;;5030429;28;20565;-57
2022/11/18 13:12:47;;;;;;;48.73;35.70;;;;;;;;;;5030336;28;20690;-56
2022/11/18 13:18:24;;;;;;;40.50;32.17;;;;;;;;;;5018991;28;20193;-56
2022/11/18 13:23:50;;;;;;;45.87;33.60;;;;;;;;;;5028100;28;20668;-56
2022/11/18 13:23:53;;;;;;;41.67;32.63;;;;;;;;;;5030153;28;20721;-57
2022/11/18 13:26:31;;;;;;;46.40;33.67;;;;;;;;;;5047150;28;20582;-56
2022/11/18 13:28:57;;;;;;;48.93;32.93;;;;;;;;;;5049845;28;20671;-56
2022/11/18 13:31:48;;;;;;;40.63;29.15;;;;;;;;;;5050070;28;20563;-57
2022/11/18 13:34:17;;;;;;;43.80;32.20;;;;;;;;;;5041182;28;20180;-57
2022/11/18 13:36:43;;;;;;;41.50;31.60;;;;;;;;;;5050134;28;21142;-57
2022/11/18 13:39:17;;;;;;;42.67;32.90;;;;;;;;;;5048541;28;20682;-57
2022/11/18 13:41:42;;;;;;;42.40;33.33;;;;;;;;;;5049884;28;20578;-57
2022/11/18 13:44:16;;;;;;;43.93;34.20;;;;;;;;;;5048723;28;20624;-56
2022/11/18 13:46:41;;;;;;;37.17;32.53;;;;;;;;;;5051450;28;20239;-56
2022/11/18 13:49:11;;;;;;;39.67;31.70;;;;;;;;;;5053297;28;20613;-56
2022/11/18 13:51:37;;;;;;;42.23;33.23;;;;;;;;;;5053911;28;20183;-56
2022/11/18 13:54:02;;;;;;;41.37;33.00;;;;;;;;;;5053112;28;20646;-57
2022/11/18 13:56:29;;;;;;;37.83;31.70;;;;;;;;;;5053682;28;20176;-55
2022/11/18 13:58:57;;;;;;;45.60;33.80;;;;;;;;;;5053249;28;20665;-57
2022/11/18 14:01:24;;;;;;;39.93;31.93;;;;;;;;;;5053375;28;20575;-57
2022/11/18 14:04:15;;;;;;;41.57;32.33;;;;;;;;;;5053307;28;20638;-56
2022/11/18 14:06:41;;;;;;;40.70;33.50;;;;;;;;;;5052031;28;21241;-56
2022/11/18 14:09:25;;;;;;;42.30;34.10;;;;;;;;;;5053224;28;20665;-56
2022/11/18 14:12:00;;;;;;;41.63;34.57;;;;;;;;;;5053142;28;20197;-55
2022/11/18 14:14:32;;;;;;;40.60;33.47;;;;;;;;;;5053250;28;20945;-56
2022/11/18 14:17:04;;;;;;;39.83;33.97;;;;;;;;;;5052921;28;20579;-56
2022/11/18 14:19:30;;;;;;;36.40;31.00;;;;;;;;;;5033659;28;20599;-57
2022/11/18 14:22:02;;;;;;;38.50;32.90;;;;;;;;;;5032826;28;20622;-55
2022/11/18 14:24:27;;;;;;;37.80;33.40;;;;;;;;;;5045240;28;20649;-57
2022/11/18 14:26:52;;;;;;;42.73;36.70;;;;;;;;;;5052826;28;20578;-56
2022/11/18 14:29:22;;;;;;;41.90;35.70;;;;;;;;;;5042155;28;20176;-57
2022/11/18 14:32:05;;;;;;;42.33;36.93;;;;;;;;;;5032712;28;20184;-57
2022/11/18 14:34:31;;;;;;;40.63;34.67;;;;;;;;;;5032674;28;21144;-57
2022/11/18 14:36:56;;;;;;;41.53;33.80;;;;;;;;;;5032804;28;20941;-56
2022/11/18 14:39:23;;;;;;;41.60;36.93;;;;;;;;;;5031980;28;20188;-56
2022/11/18 14:41:49;;;;;;;41.70;35.60;;;;;;;;;;5035399;28;20192;-56
2022/11/18 14:44:14;;;;;;;46.50;36.80;;;;;;;;;;5032206;28;20642;-56